Time;durP1;ratioP1;P1;durP2;ratioP2;P2;SDS_P1;SDS_P2;PMS_P1;PMS_P2;Temp;Humidity;BMP_temperature;BMP_pressure;BME280_temperature;BME280_humidity;BME280_pressure;Samples;Min_cycle;Max_cycle;Signal;HPM_P1;HPM_P2
2022/07/24 00:00:40;;;;;;;6.97;6.32;;;;;;;22.82;59.84;97048.00;10423611;28;20037;-24
2022/07/24 00:05:41;;;;;;;9.02;6.43;;;;;;;22.76;59.88;97045.50;10422944;28;20119;-23
2022/07/24 00:10:41;;;;;;;7.85;6.85;;;;;;;22.71;59.93;97044.72;10421457;28;20184;-23
2022/07/24 00:15:42;;;;;;;5.50;5.00;;;;;;;22.67;60.10;97043.94;10423250;28;20064;-24
2022/07/24 00:20:42;;;;;;;9.43;6.80;;;;;;;22.66;60.14;97042.22;10429508;28;20053;-24
2022/07/24 00:25:43;;;;;;;6.90;6.20;;;;;;;22.68;59.83;97045.63;10418652;28;20055;-23
2022/07/24 00:30:43;;;;;;;7.25;6.18;;;;;;;22.80;59.41;97035.25;10429043;28;20578;-23
2022/07/24 00:35:44;;;;;;;7.43;6.13;;;;;;;22.80;59.48;97030.16;10423858;28;20041;-22
2022/07/24 00:40:44;;;;;;;7.60;6.90;;;;;;;22.74;59.59;97034.47;10427781;28;20039;-22
2022/07/24 00:45:45;;;;;;;7.97;7.13;;;;;;;22.68;59.56;97030.31;10429110;28;20450;-23
2022/07/24 00:50:46;;;;;;;8.50;6.22;;;;;;;22.65;59.67;97027.75;10432531;28;20132;-23
2022/07/24 00:55:47;;;;;;;7.07;6.40;;;;;;;22.65;59.82;97040.53;10423086;28;20064;-22
2022/07/24 01:00:47;;;;;;;6.90;6.20;;;;;;;22.63;59.58;97032.06;10428870;28;20452;-23
2022/07/24 01:05:48;;;;;;;7.78;6.93;;;;;;;22.72;59.50;97036.22;10430685;28;20470;-22
2022/07/24 01:10:48;;;;;;;7.10;6.45;;;;;;;22.75;59.21;97026.78;10427733;28;20392;-23
2022/07/24 01:15:48;;;;;;;6.67;5.67;;;;;;;22.70;59.50;97033.69;10430221;28;20626;-23
2022/07/24 01:20:49;;;;;;;6.57;6.03;;;;;;;22.63;59.71;97029.50;10435226;28;20156;-22
2022/07/24 01:25:50;;;;;;;6.65;5.88;;;;;;;22.60;59.86;97027.00;10416108;28;20809;-22
2022/07/24 01:30:50;;;;;;;6.22;5.57;;;;;;;22.61;59.75;97026.13;10433161;28;21023;-23
2022/07/24 01:35:52;;;;;;;7.67;6.27;;;;;;;22.60;59.89;97027.00;10429529;28;20064;-24
2022/07/24 01:40:52;;;;;;;8.80;6.95;;;;;;;22.60;59.75;97021.88;10429194;28;20785;-24
2022/07/24 01:45:52;;;;;;;7.57;6.87;;;;;;;22.68;59.49;97022.66;10430749;28;20036;-23
2022/07/24 01:50:53;;;;;;;7.27;6.57;;;;;;;22.69;59.56;97026.88;10427818;28;20079;-23
2022/07/24 01:55:53;;;;;;;6.87;6.17;;;;;;;22.66;59.51;97018.41;10428301;28;20037;-22
2022/07/24 02:00:55;;;;;;;7.00;6.30;;;;;;;22.61;59.57;97021.03;10425027;28;20488;-23
2022/07/24 02:05:55;;;;;;;5.90;5.43;;;;;;;22.51;60.28;97014.34;10430682;28;20605;-22
2022/07/24 02:10:55;;;;;;;6.60;6.00;;;;;;;22.53;59.71;97020.25;10424179;28;20599;-23
2022/07/24 02:15:56;;;;;;;7.17;6.27;;;;;;;22.50;59.76;97010.06;10425285;28;20055;-23
2022/07/24 02:20:56;;;;;;;7.43;6.72;;;;;;;22.53;59.67;97010.06;10432074;28;20044;-23
2022/07/24 02:25:57;;;;;;;7.40;6.43;;;;;;;22.58;59.42;97008.28;10426562;28;20029;-23
2022/07/24 02:30:57;;;;;;;6.67;5.83;;;;;;;22.59;59.36;97004.88;10431187;28;20021;-24
2022/07/24 02:35:57;;;;;;;7.70;5.63;;;;;;;22.49;59.49;97005.81;10427814;28;20040;-24
2022/07/24 02:40:58;;;;;;;6.33;5.73;;;;;;;22.51;60.14;97018.59;10424859;28;20545;-23
2022/07/24 02:45:58;;;;;;;7.00;6.40;;;;;;;22.47;59.62;97014.38;10427647;28;20295;-23
2022/07/24 02:50:59;;;;;;;6.97;6.37;;;;;;;22.44;60.00;97017.81;10426860;28;20032;-22
2022/07/24 02:55:59;;;;;;;6.75;6.07;;;;;;;22.43;59.89;97016.13;10418835;28;20295;-23
2022/07/24 03:01:00;;;;;;;6.88;6.20;;;;;;;22.49;59.60;97026.25;10422057;28;20033;-23
2022/07/24 03:06:00;;;;;;;7.13;6.43;;;;;;;22.53;59.45;97017.72;10423167;28;20033;-22
2022/07/24 03:11:00;;;;;;;7.33;6.63;;;;;;;22.53;59.52;97015.16;10428932;28;20040;-23
2022/07/24 03:16:01;;;;;;;6.50;5.90;;;;;;;22.47;59.83;97016.94;10422833;28;20039;-23
2022/07/24 03:21:02;;;;;;;6.85;6.20;;;;;;;22.40;59.80;97021.22;10428222;28;20056;-23
2022/07/24 03:26:02;;;;;;;7.55;6.40;;;;;;;22.38;59.75;97020.38;10425987;28;20039;-23
2022/07/24 03:31:02;;;;;;;6.67;6.07;;;;;;;22.39;59.98;97028.91;10424074;28;20025;-25
2022/07/24 03:36:03;;;;;;;6.50;5.80;;;;;;;22.35;59.82;97019.56;10427539;28;20778;-23
2022/07/24 03:41:03;;;;;;;6.53;5.93;;;;;;;22.39;59.61;97021.25;10428769;28;20288;-23
2022/07/24 03:46:04;;;;;;;7.90;6.60;;;;;;;22.46;59.60;97015.22;10426621;28;20446;-24
2022/07/24 03:51:04;;;;;;;6.70;6.10;;;;;;;22.36;59.54;97021.25;10426718;28;20037;-22
2022/07/24 03:56:07;;;;;;;7.20;6.28;;;;;;;22.38;59.67;97016.97;10427585;28;20033;-23
2022/07/24 04:01:07;;;;;;;7.05;6.43;;;;;;;22.37;59.68;97023.81;10420408;28;20037;-23
2022/07/24 04:06:07;;;;;;;5.93;5.37;;;;;;;22.35;59.87;97038.28;10426148;28;20044;-22
2022/07/24 04:11:08;;;;;;;7.63;6.93;;;;;;;22.34;59.79;97039.16;10420099;28;20025;-22
2022/07/24 04:16:08;;;;;;;6.80;6.20;;;;;;;22.34;59.81;97035.75;10427204;28;20298;-22
2022/07/24 04:21:09;;;;;;;8.27;6.30;;;;;;;22.39;59.57;97045.03;10436348;28;20117;-23
2022/07/24 04:26:09;;;;;;;6.67;6.03;;;;;;;22.48;59.35;97042.41;10429858;28;20033;-23
2022/07/24 04:31:10;;;;;;;6.57;6.00;;;;;;;22.38;59.20;97030.59;10436988;28;20279;-22
2022/07/24 04:36:11;;;;;;;6.03;5.53;;;;;;;22.40;59.54;97045.91;10438605;28;20811;-23
2022/07/24 04:41:11;;;;;;;6.83;6.20;;;;;;;22.42;59.61;97041.66;10434961;28;20035;-23
2022/07/24 04:46:12;;;;;;;6.95;6.28;;;;;;;22.39;59.50;97042.47;10432436;28;20033;-22
2022/07/24 04:51:13;;;;;;;8.27;6.57;;;;;;;22.37;59.67;97039.09;10434256;28;20121;-22
2022/07/24 04:56:13;;;;;;;6.55;5.95;;;;;;;22.38;59.72;97045.91;10433756;28;20033;-23
2022/07/24 05:01:14;;;;;;;7.28;6.68;;;;;;;22.42;59.33;97050.16;10425952;28;20034;-23
2022/07/24 05:06:14;;;;;;;7.32;6.38;;;;;;;22.46;59.25;97048.38;10432944;28;20040;-24
2022/07/24 05:11:15;;;;;;;6.03;5.47;;;;;;;22.47;59.30;97050.94;10429645;28;20033;-23
2022/07/24 05:16:15;;;;;;;6.87;6.17;;;;;;;22.44;59.45;97050.13;10421381;28;20045;-24
2022/07/24 05:21:15;;;;;;;8.57;6.87;;;;;;;22.39;59.64;97047.59;10435806;28;20029;-22
2022/07/24 05:26:16;;;;;;;8.82;6.60;;;;;;;22.40;59.72;97051.81;10428010;28;20638;-24
2022/07/24 05:31:16;;;;;;;7.10;6.40;;;;;;;22.52;59.67;97054.31;10429379;28;20450;-23
2022/07/24 05:36:16;;;;;;;6.83;6.23;;;;;;;22.74;59.53;97044.69;10431549;28;20338;-24
2022/07/24 05:41:17;;;;;;;7.10;6.37;;;;;;;22.72;59.61;97049.81;10425537;28;20030;-24
2022/07/24 05:46:17;;;;;;;8.30;7.43;;;;;;;22.73;59.88;97038.72;10434295;28;20091;-23
2022/07/24 05:51:18;;;;;;;8.13;7.27;;;;;;;22.72;60.60;97037.03;10432987;28;20291;-24
2022/07/24 05:56:18;;;;;;;10.97;7.53;;;;;;;22.73;60.82;97048.94;10433383;28;20064;-23
2022/07/24 06:01:18;;;;;;;7.60;6.90;;;;;;;22.70;61.04;97049.00;10425746;28;20295;-22
2022/07/24 06:06:19;;;;;;;7.47;6.73;;;;;;;22.64;61.17;97046.50;10433158;28;20294;-23
2022/07/24 06:11:20;;;;;;;8.50;7.57;;;;;;;22.65;61.14;97040.53;10434078;28;20291;-23
2022/07/24 06:16:20;;;;;;;9.13;7.32;;;;;;;22.76;61.11;97043.81;10416373;28;20080;-26
2022/07/24 06:21:20;;;;;;;13.40;7.70;;;;;;;22.64;61.05;97041.38;10418086;28;20175;-23
2022/07/24 06:26:21;;;;;;;10.73;7.20;;;;;;;22.74;61.20;97031.94;10426208;28;20025;-22
2022/07/24 06:31:21;;;;;;;9.33;8.20;;;;;;;22.71;60.90;97029.41;10428234;28;20306;-24
2022/07/24 06:36:21;;;;;;;13.47;5.93;;;;;;;22.72;60.68;97031.94;10402848;28;20029;-23
2022/07/24 06:41:22;;;;;;;7.03;6.00;;;;;;;22.52;60.97;97022.81;10420354;28;20381;-22
2022/07/24 06:46:22;;;;;;;8.43;6.63;;;;;;;22.50;60.97;97015.16;10402767;28;20400;-22
2022/07/24 06:51:22;;;;;;;8.07;6.23;;;;;;;22.50;60.39;97016.91;10432051;28;20411;-24
2022/07/24 06:56:23;;;;;;;8.93;7.40;;;;;;;22.56;61.00;97011.72;10423436;28;20392;-22
2022/07/24 07:01:25;;;;;;;10.43;7.47;;;;;;;22.49;61.11;97010.09;10414389;28;20506;-23
2022/07/24 07:06:26;;;;;;;9.30;8.40;;;;;;;22.67;60.73;97017.53;10427949;28;20032;-23
2022/07/24 07:11:27;;;;;;;9.60;7.70;;;;;;;22.77;60.68;97019.97;10411821;28;20392;-23
2022/07/24 07:16:27;;;;;;;11.52;7.35;;;;;;;22.79;60.78;97002.94;10406582;28;20029;-22
2022/07/24 07:21:28;;;;;;;8.45;6.97;;;;;;;22.61;60.49;97015.91;10412330;28;20068;-24
2022/07/24 07:26:28;;;;;;;10.83;7.47;;;;;;;22.55;60.69;97013.44;10405488;28;20092;-23
2022/07/24 07:31:28;;;;;;;9.23;6.60;;;;;;;22.48;60.78;97006.69;10405193;28;20033;-23
2022/07/24 07:36:29;;;;;;;8.70;5.82;;;;;;;22.46;60.75;97008.44;10413141;28;20072;-24
2022/07/24 07:41:29;;;;;;;5.23;4.73;;;;;;;22.45;60.87;97004.19;10423129;28;20048;-24
2022/07/24 07:46:30;;;;;;;9.70;6.57;;;;;;;22.60;60.79;97006.56;10404315;28;20287;-24
2022/07/24 07:51:30;;;;;;;13.55;7.75;;;;;;;22.77;60.85;96997.00;10400051;28;20026;-23
2022/07/24 07:56:32;;;;;;;7.80;5.57;;;;;;;22.78;61.50;97001.25;10397166;28;20053;-23
2022/07/24 08:01:32;;;;;;;8.77;5.75;;;;;;;22.63;61.49;97003.13;10401792;28;20443;-22
2022/07/24 08:06:33;;;;;;;6.57;5.80;;;;;;;22.57;61.12;97001.47;10409647;28;20091;-23
2022/07/24 08:11:33;;;;;;;10.87;6.77;;;;;;;22.54;60.92;96996.44;10419981;28;20288;-23
2022/07/24 08:16:34;;;;;;;7.50;6.30;;;;;;;22.51;60.84;96991.38;10416250;28;21015;-22
2022/07/24 08:21:34;;;;;;;6.47;5.43;;;;;;;22.49;60.92;96982.03;10425017;28;20041;-23
2022/07/24 08:26:35;;;;;;;12.85;6.07;;;;;;;22.60;60.91;96986.16;10421333;28;20890;-24
2022/07/24 08:31:35;;;;;;;12.40;6.75;;;;;;;22.79;60.72;96986.75;10426190;28;20040;-23
2022/07/24 08:36:36;;;;;;;6.75;4.97;;;;;;;22.72;60.45;96980.88;10431019;28;20044;-24
2022/07/24 08:41:37;;;;;;;8.25;5.95;;;;;;;22.70;60.85;96982.63;10426456;28;20091;-23
2022/07/24 08:46:39;;;;;;;7.47;4.50;;;;;;;22.66;60.70;96991.16;10420445;28;20037;-23
2022/07/24 08:51:42;;;;;;;5.60;5.00;;;;;;;22.61;60.67;96985.28;10403862;28;20435;-23
2022/07/24 08:56:43;;;;;;;5.57;5.07;;;;;;;22.60;60.92;96990.41;10424354;28;20037;-24
2022/07/24 09:01:43;;;;;;;6.93;5.03;;;;;;;22.58;60.69;96982.75;10420495;28;20041;-23
2022/07/24 09:06:57;;;;;;;6.88;4.68;;;;;;;22.53;60.79;96969.22;10433545;28;20040;-23
2022/07/24 09:12:09;;;;;;;5.93;5.32;;;;;;;22.82;61.00;96976.53;10432586;28;20040;-22
2022/07/24 09:17:19;;;;;;;8.30;5.60;;;;;;;22.88;60.41;96987.50;10428484;28;20600;-22
2022/07/24 09:22:26;;;;;;;7.25;4.90;;;;;;;22.70;60.37;96977.50;10415263;28;20098;-23
2022/07/24 09:27:26;;;;;;;6.28;5.30;;;;;;;22.65;60.54;96984.38;10430681;28;20544;-22
2022/07/24 09:32:27;;;;;;;11.03;6.17;;;;;;;22.61;60.67;96976.78;10422562;28;20029;-22
2022/07/24 09:37:27;;;;;;;5.70;5.18;;;;;;;22.62;60.61;96968.25;10429225;28;20033;-23
2022/07/24 09:42:38;;;;;;;7.00;5.35;;;;;;;22.60;60.87;96964.88;10422248;28;20499;-24
2022/07/24 09:47:39;;;;;;;14.30;5.70;;;;;;;22.60;60.93;96962.31;10419845;28;20033;-23
2022/07/24 09:52:41;;;;;;;7.72;5.95;;;;;;;22.80;60.70;96961.22;10428719;28;20462;-22
2022/07/24 09:57:41;;;;;;;7.07;6.10;;;;;;;22.89;60.19;96945.75;10425631;28;20120;-23
2022/07/24 10:02:44;;;;;;;5.70;5.10;;;;;;;22.77;60.19;96953.59;10415354;28;20531;-21
2022/07/24 10:07:47;;;;;;;5.30;4.80;;;;;;;22.66;60.41;96952.88;10428697;28;20098;-23
2022/07/24 10:12:48;;;;;;;8.27;5.70;;;;;;;22.63;60.54;96960.59;10419397;28;20039;-23
2022/07/24 10:18:15;;;;;;;4.90;4.43;;;;;;;22.60;60.84;96955.53;10419103;28;20041;-24
2022/07/24 10:23:27;;;;;;;6.22;4.80;;;;;;;22.57;60.60;96954.72;10412377;28;20038;-23
2022/07/24 10:28:42;;;;;;;12.45;5.38;;;;;;;22.56;60.88;96938.53;10417380;28;20562;-24
2022/07/24 10:33:52;;;;;;;5.70;5.20;;;;;;;22.75;60.46;96944.28;10412630;28;20443;-23
2022/07/24 10:39:00;;;;;;;6.18;5.47;;;;;;;22.91;60.22;96941.47;10406162;28;20076;-22
2022/07/24 10:44:18;;;;;;;4.95;4.45;;;;;;;22.79;60.12;96940.78;10416430;28;20037;-23
2022/07/24 10:49:50;;;;;;;8.07;5.03;;;;;;;22.68;60.31;96938.41;10418929;28;20033;-24
2022/07/24 10:55:22;;;;;;;9.60;6.03;;;;;;;22.65;60.55;96935.88;10398606;28;20127;-24
2022/07/24 11:00:35;;;;;;;7.53;4.85;;;;;;;22.61;60.68;96926.59;10422974;28;20540;-24
2022/07/24 11:05:38;;;;;;;12.75;5.05;;;;;;;22.61;60.81;96921.47;10415724;28;20522;-23
2022/07/24 11:10:50;;;;;;;14.27;6.43;;;;;;;22.58;60.72;96911.28;10426351;28;20236;-22
2022/07/24 11:16:15;;;;;;;8.35;5.68;;;;;;;22.76;60.77;96902.56;10422802;28;20049;-23
2022/07/24 11:21:35;;;;;;;9.38;5.15;;;;;;;22.93;60.72;96904.03;10428785;28;20083;-23
2022/07/24 11:26:40;;;;;;;6.50;4.75;;;;;;;22.80;60.17;96894.84;10414981;28;20343;-23
2022/07/24 11:31:42;;;;;;;6.38;4.47;;;;;;;22.69;60.46;96889.03;10418462;28;20124;-24
2022/07/24 11:36:45;;;;;;;5.90;5.30;;;;;;;22.63;60.70;96888.25;10424946;28;20065;-23
2022/07/24 11:42:16;;;;;;;8.65;6.13;;;;;;;22.61;60.73;96879.78;10419344;28;20041;-22
2022/07/24 11:47:20;;;;;;;6.50;5.20;;;;;;;22.59;60.80;96881.53;10422278;28;20067;-24
2022/07/24 11:52:24;;;;;;;9.73;6.35;;;;;;;22.58;60.87;96875.56;10420526;28;20109;-24
2022/07/24 11:57:30;;;;;;;6.60;5.70;;;;;;;22.75;61.34;96867.69;10426351;28;20030;-23
2022/07/24 12:02:30;;;;;;;7.43;5.72;;;;;;;22.94;61.26;96858.88;10420903;28;20160;-23
2022/07/24 12:07:31;;;;;;;5.57;5.07;;;;;;;22.90;60.34;96859.81;10415607;28;20128;-23
2022/07/24 12:12:37;;;;;;;5.22;4.65;;;;;;;22.74;60.52;96851.50;10422360;28;20492;-23
2022/07/24 12:18:13;;;;;;;6.72;4.30;;;;;;;22.64;60.60;96852.50;10420339;28;20068;-22
2022/07/24 12:23:15;;;;;;;7.18;5.00;;;;;;;22.62;60.71;96841.50;10324344;28;20053;-23
2022/07/24 12:28:21;;;;;;;5.63;4.18;;;;;;;22.58;60.97;96839.84;10420689;28;20025;-23
2022/07/24 12:33:22;;;;;;;6.15;5.63;;;;;;;22.59;60.83;96830.47;10419893;28;20041;-25
2022/07/24 12:38:34;;;;;;;9.05;6.47;;;;;;;22.67;62.12;96816.75;10429502;28;20029;-23
2022/07/24 12:43:50;;;;;;;5.45;5.03;;;;;;;22.92;61.11;96820.59;10421401;28;20037;-23
2022/07/24 12:49:05;;;;;;;4.75;4.35;;;;;;;22.93;60.39;96817.19;10429711;28;20037;-23
2022/07/24 12:54:06;;;;;;;4.82;4.35;;;;;;;22.76;60.42;96803.84;10419996;28;20064;-24
2022/07/24 12:59:07;;;;;;;6.00;4.63;;;;;;;22.70;60.54;96798.84;10429022;28;20025;-24
2022/07/24 13:04:09;;;;;;;6.38;4.63;;;;;;;22.64;60.76;96783.59;10425953;28;20040;-23
2022/07/24 13:09:12;;;;;;;5.63;4.55;;;;;;;22.60;61.07;96787.09;10426177;28;20026;-22
2022/07/24 13:14:14;;;;;;;5.22;4.82;;;;;;;22.60;60.92;96779.44;10429901;28;20025;-23
2022/07/24 13:19:15;;;;;;;5.72;4.65;;;;;;;22.59;61.03;96775.19;10426883;28;20061;-24
2022/07/24 13:24:16;;;;;;;4.55;4.07;;;;;;;22.85;61.29;96773.06;10422679;28;20040;-23
2022/07/24 13:29:16;;;;;;;4.70;4.20;;;;;;;22.99;60.74;96771.09;10424430;28;20029;-24
2022/07/24 13:34:17;;;;;;;4.97;4.40;;;;;;;22.81;60.49;96756.09;10431486;28;20434;-24
2022/07/24 13:39:17;;;;;;;7.53;4.38;;;;;;;22.73;60.57;96742.63;10426534;28;20345;-23
2022/07/24 13:44:18;;;;;;;4.70;4.30;;;;;;;22.67;60.62;96750.41;10422873;28;20060;-22
2022/07/24 13:49:19;;;;;;;6.07;5.47;;;;;;;22.67;60.74;96742.75;10429844;28;20275;-24
2022/07/24 13:54:19;;;;;;;6.18;4.97;;;;;;;22.64;61.07;96736.84;10422188;28;20523;-23
2022/07/24 13:59:19;;;;;;;5.10;4.43;;;;;;;22.62;60.94;96718.13;10433050;28;20038;-22
2022/07/24 14:04:20;;;;;;;4.57;4.17;;;;;;;22.75;61.40;96720.44;10426196;28;20120;-24
2022/07/24 14:09:21;;;;;;;4.97;4.50;;;;;;;22.99;61.14;96720.03;10430901;28;20407;-24
2022/07/24 14:14:21;;;;;;;5.85;3.75;;;;;;;22.96;60.19;96715.00;10426289;28;20029;-24
2022/07/24 14:19:22;;;;;;;4.80;4.33;;;;;;;22.79;60.44;96699.13;10423680;28;20403;-23
2022/07/24 14:24:23;;;;;;;5.55;3.88;;;;;;;22.64;60.59;96686.63;10422586;28;20295;-23
2022/07/24 14:29:24;;;;;;;4.30;3.90;;;;;;;22.67;60.60;96678.94;10422532;28;20384;-23
2022/07/24 14:34:24;;;;;;;10.25;5.53;;;;;;;22.65;61.04;96679.81;10430433;28;20275;-24
2022/07/24 14:39:25;;;;;;;6.03;5.30;;;;;;;22.64;60.82;96671.31;10425138;28;20025;-22
2022/07/24 14:44:25;;;;;;;5.60;5.00;;;;;;;22.57;60.84;96651.84;10420855;28;20105;-24
2022/07/24 14:49:26;;;;;;;4.57;4.17;;;;;;;22.89;61.18;96667.47;10427495;28;20029;-23
2022/07/24 14:54:26;;;;;;;4.17;3.77;;;;;;;23.02;60.27;96670.63;10415513;28;20350;-24
2022/07/24 14:59:27;;;;;;;5.27;4.73;;;;;;;22.87;60.56;96655.59;10425237;28;20880;-25
2022/07/24 15:04:27;;;;;;;4.18;3.88;;;;;;;22.78;61.80;96648.94;10408650;28;20052;-23
2022/07/24 15:09:27;;;;;;;8.57;5.13;;;;;;;22.65;62.41;96647.47;10420946;28;20038;-23
2022/07/24 15:14:28;;;;;;;9.32;3.97;;;;;;;22.75;62.83;96633.66;10416584;28;20034;-24
2022/07/24 15:19:29;;;;;;;7.80;3.67;;;;;;;22.78;62.76;96632.78;10408610;28;20029;-23
2022/07/24 15:24:29;;;;;;;6.85;4.40;;;;;;;22.82;62.57;96639.53;10405358;28;20318;-24
2022/07/24 15:29:31;;;;;;;8.23;4.80;;;;;;;22.85;62.11;96625.00;10414784;28;20037;-24
2022/07/24 15:34:31;;;;;;;6.00;3.90;;;;;;;23.06;61.47;96619.47;10422471;28;20037;-24
2022/07/24 15:39:32;;;;;;;3.40;3.10;;;;;;;23.03;60.66;96619.53;10422060;28;20039;-24
2022/07/24 15:44:32;;;;;;;7.70;4.90;;;;;;;22.87;61.51;96607.94;10420955;28;20030;-23
2022/07/24 15:49:33;;;;;;;11.05;4.57;;;;;;;22.76;61.52;96609.00;10426029;28;20025;-23
2022/07/24 15:54:33;;;;;;;5.20;3.63;;;;;;;22.73;61.37;96602.22;10418948;28;20034;-23
2022/07/24 15:59:34;;;;;;;6.13;4.10;;;;;;;22.69;61.45;96597.22;10417863;28;20311;-24
2022/07/24 16:04:34;;;;;;;5.28;3.30;;;;;;;22.69;61.33;96592.97;10421019;28;20038;-24
2022/07/24 16:09:34;;;;;;;5.47;3.90;;;;;;;22.68;61.37;96590.44;10410526;28;20034;-23
2022/07/24 16:14:35;;;;;;;6.33;3.47;;;;;;;22.95;60.86;96577.13;10419596;28;20071;-23
2022/07/24 16:19:35;;;;;;;5.37;3.33;;;;;;;23.05;60.91;96576.94;10418639;28;20029;-23
2022/07/24 16:24:35;;;;;;;4.53;3.45;;;;;;;22.92;61.04;96572.09;10404190;28;20037;-24
2022/07/24 16:29:36;;;;;;;8.57;4.37;;;;;;;22.84;61.52;96567.16;10419130;28;20041;-23
2022/07/24 16:34:37;;;;;;;5.70;3.93;;;;;;;22.77;61.41;96564.72;10427196;28;20045;-22
2022/07/24 16:39:37;;;;;;;5.32;4.00;;;;;;;22.72;61.38;96552.06;10420480;28;20494;-23
2022/07/24 16:44:38;;;;;;;3.60;3.30;;;;;;;22.68;61.41;96555.56;10414362;28;20029;-25
2022/07/24 16:49:39;;;;;;;5.60;4.43;;;;;;;22.67;61.45;96553.03;10425468;28;20053;-24
2022/07/24 16:54:40;;;;;;;5.77;4.50;;;;;;;22.82;61.80;96545.91;10418944;28;20128;-22
2022/07/24 16:59:41;;;;;;;4.88;4.20;;;;;;;23.05;61.32;96541.16;10407717;28;20034;-24
2022/07/24 17:04:41;;;;;;;7.93;3.47;;;;;;;23.02;60.72;96545.50;10410471;28;20037;-24
2022/07/24 17:09:41;;;;;;;6.13;3.67;;;;;;;22.85;60.90;96545.84;10415940;28;20419;-23
2022/07/24 17:14:42;;;;;;;6.70;4.50;;;;;;;22.76;61.35;96553.69;10421504;28;20156;-22
2022/07/24 17:19:42;;;;;;;6.63;4.67;;;;;;;22.69;61.65;96541.06;10414921;28;20029;-25
2022/07/24 17:24:42;;;;;;;3.73;3.10;;;;;;;22.70;61.30;96547.84;10419894;28;20820;-24
2022/07/24 17:29:43;;;;;;;5.33;3.33;;;;;;;22.69;61.17;96547.03;10420389;28;20285;-22
2022/07/24 17:34:43;;;;;;;3.95;3.50;;;;;;;22.91;61.56;96550.81;10430081;28;20045;-23
2022/07/24 17:39:44;;;;;;;3.67;3.37;;;;;;;23.08;61.07;96551.31;10426575;28;20553;-24
2022/07/24 17:44:44;;;;;;;3.80;3.50;;;;;;;22.97;60.86;96542.22;10417495;28;20519;-24
2022/07/24 17:49:45;;;;;;;4.00;3.70;;;;;;;22.83;60.98;96545.03;10420941;28;20121;-23
2022/07/24 17:54:45;;;;;;;3.33;3.05;;;;;;;22.76;61.18;96543.47;10411660;28;20051;-23
2022/07/24 17:59:46;;;;;;;3.40;3.10;;;;;;;22.71;61.17;96542.72;10415893;28;20455;-24
2022/07/24 18:04:46;;;;;;;4.20;3.53;;;;;;;22.72;61.29;96544.41;10408478;28;20036;-23
2022/07/24 18:09:47;;;;;;;5.57;3.60;;;;;;;22.76;62.22;96548.59;10417440;28;20031;-24
2022/07/24 18:14:47;;;;;;;4.25;3.42;;;;;;;23.02;61.16;96551.47;10419163;28;20287;-23
2022/07/24 18:19:48;;;;;;;4.07;3.10;;;;;;;23.07;60.59;96549.63;10413296;28;20064;-24
2022/07/24 18:24:49;;;;;;;3.83;3.20;;;;;;;22.92;60.98;96560.16;10415720;28;20064;-23
2022/07/24 18:29:49;;;;;;;4.50;3.90;;;;;;;22.80;60.95;96554.44;10426956;28;20128;-23
2022/07/24 18:34:50;;;;;;;4.90;3.53;;;;;;;22.76;61.04;96558.81;10423740;28;20049;-24
2022/07/24 18:39:50;;;;;;;6.00;3.00;;;;;;;22.74;61.19;96575.00;10410250;28;20126;-24
2022/07/24 18:44:51;;;;;;;8.30;3.57;;;;;;;22.71;61.17;96565.69;10412335;28;20801;-24
2022/07/24 18:49:51;;;;;;;6.45;3.40;;;;;;;22.71;61.47;96569.94;10420189;28;20029;-25
2022/07/24 18:54:51;;;;;;;3.70;3.40;;;;;;;23.02;60.90;96577.00;10410733;28;20483;-23
2022/07/24 18:59:52;;;;;;;5.53;3.53;;;;;;;23.07;60.35;96577.72;10408317;28;20064;-23
2022/07/24 19:04:52;;;;;;;4.67;3.33;;;;;;;22.92;60.80;96582.31;10411307;28;20041;-23
2022/07/24 19:09:52;;;;;;;3.50;3.20;;;;;;;22.80;60.86;96580.81;10414179;28;20025;-25
2022/07/24 19:14:53;;;;;;;3.23;3.00;;;;;;;22.75;61.01;96589.44;10415119;28;20031;-25
2022/07/24 19:19:53;;;;;;;6.13;3.27;;;;;;;22.72;61.05;96592.91;10410775;28;20339;-23
2022/07/24 19:24:53;;;;;;;3.50;2.90;;;;;;;22.66;61.10;96582.78;10409793;28;20482;-23
2022/07/24 19:29:54;;;;;;;3.80;2.80;;;;;;;22.70;61.15;96596.34;10412116;28;20039;-23
2022/07/24 19:34:54;;;;;;;3.43;3.03;;;;;;;22.97;61.46;96604.31;10415477;28;20036;-24
2022/07/24 19:39:55;;;;;;;3.33;3.07;;;;;;;23.09;60.62;96599.00;10411145;28;20645;-23
2022/07/24 19:44:55;;;;;;;3.53;3.23;;;;;;;22.96;60.78;96600.09;10408796;28;20296;-25
2022/07/24 19:49:57;;;;;;;6.80;3.10;;;;;;;22.83;60.85;96600.34;10406331;28;20284;-23
2022/07/24 19:54:57;;;;;;;4.88;2.95;;;;;;;22.76;60.94;96599.63;10396749;28;20293;-25
2022/07/24 19:59:57;;;;;;;4.27;2.97;;;;;;;22.74;60.94;96606.47;10407507;28;20107;-24
2022/07/24 20:04:58;;;;;;;3.03;2.83;;;;;;;22.71;61.15;96595.47;10403567;28;20035;-24
2022/07/24 20:09:58;;;;;;;7.95;3.20;;;;;;;22.70;61.20;96599.75;10366957;28;20064;-23
2022/07/24 20:14:58;;;;;;;4.50;3.20;;;;;;;22.90;61.98;96590.00;10360076;28;20072;-24
2022/07/24 20:19:59;;;;;;;4.50;3.20;;;;;;;23.08;61.32;96592.16;10396914;28;20038;-23
2022/07/24 20:24:59;;;;;;;4.77;2.83;;;;;;;22.99;61.32;96587.25;10384996;28;20040;-24
2022/07/24 20:30:00;;;;;;;4.83;3.23;;;;;;;22.87;61.09;96587.50;10388906;28;20087;-24
2022/07/24 20:35:00;;;;;;;4.60;3.73;;;;;;;22.76;61.81;96589.44;10391167;28;20296;-24
2022/07/24 20:40:01;;;;;;;4.00;3.60;;;;;;;22.76;61.56;96586.88;10395594;28;20034;-23
2022/07/24 20:45:04;;;;;;;3.35;3.05;;;;;;;22.74;61.66;96580.13;10403324;28;20464;-23
2022/07/24 20:50:05;;;;;;;4.18;3.60;;;;;;;22.74;61.34;96580.13;10417599;28;20029;-24
2022/07/24 20:55:06;;;;;;;4.72;3.58;;;;;;;22.83;62.19;96583.31;10406134;28;20037;-23
2022/07/24 21:00:07;;;;;;;4.40;4.03;;;;;;;23.05;61.76;96582.03;10413851;28;20041;-24
2022/07/24 21:05:08;;;;;;;3.55;3.25;;;;;;;23.05;60.66;96587.13;10424953;28;20479;-24
2022/07/24 21:10:09;;;;;;;3.20;3.00;;;;;;;22.88;60.94;96578.13;10424789;28;20032;-24
2022/07/24 21:15:10;;;;;;;5.13;3.67;;;;;;;22.80;60.98;96580.81;10419580;28;20388;-23
2022/07/24 21:20:12;;;;;;;4.13;3.08;;;;;;;22.76;60.90;96573.25;10429249;28;20042;-23
2022/07/24 21:25:13;;;;;;;3.40;3.10;;;;;;;22.68;60.83;96552.16;10420599;28;20763;-23
2022/07/24 21:30:13;;;;;;;4.03;3.50;;;;;;;22.73;61.07;96568.22;10424391;28;20094;-23
2022/07/24 21:35:14;;;;;;;4.27;3.87;;;;;;;22.73;61.09;96563.94;10421071;28;20025;-24
2022/07/24 21:40:14;;;;;;;3.95;3.60;;;;;;;22.99;60.53;96566.81;10421986;28;20120;-23
2022/07/24 21:45:14;;;;;;;3.83;3.33;;;;;;;23.08;60.27;96561.53;10421827;28;20033;-23
2022/07/24 21:50:15;;;;;;;3.63;3.33;;;;;;;22.94;60.45;96553.31;10428723;28;20029;-24
2022/07/24 21:55:15;;;;;;;4.78;3.72;;;;;;;22.82;60.62;96553.56;10416767;28;20029;-23
2022/07/24 22:00:15;;;;;;;2.97;2.78;;;;;;;22.77;60.64;96544.31;10419706;28;20025;-23
2022/07/24 22:05:16;;;;;;;3.87;3.47;;;;;;;22.75;60.82;96541.78;10425667;28;20116;-23
2022/07/24 22:10:16;;;;;;;2.70;2.50;;;;;;;22.73;60.71;96548.63;10416188;28;20056;-24
2022/07/24 22:15:17;;;;;;;5.37;4.83;;;;;;;22.71;60.73;96537.63;10426352;28;20082;-23
2022/07/24 22:20:17;;;;;;;4.88;4.47;;;;;;;22.94;60.15;96544.81;10420761;28;20647;-24
2022/07/24 22:25:18;;;;;;;6.18;5.40;;;;;;;23.09;59.86;96542.81;10420329;28;20037;-23
2022/07/24 22:30:18;;;;;;;4.05;3.65;;;;;;;23.00;59.86;96537.03;10418542;28;20036;-24
2022/07/24 22:35:19;;;;;;;4.32;4.00;;;;;;;22.88;60.25;96538.13;10419405;28;20487;-25
2022/07/24 22:40:20;;;;;;;6.38;4.90;;;;;;;22.83;60.34;96537.34;10422982;28;20064;-24
2022/07/24 22:45:21;;;;;;;6.75;5.20;;;;;;;22.81;60.60;96539.09;10419761;28;20037;-24
2022/07/24 22:50:21;;;;;;;6.25;5.65;;;;;;;22.77;60.66;96540.06;10423532;28;20047;-24
2022/07/24 22:55:24;;;;;;;4.25;3.78;;;;;;;22.76;60.57;96533.28;10418817;28;20033;-23
2022/07/24 23:00:25;;;;;;;7.28;6.25;;;;;;;22.85;60.31;96537.34;10419357;28;20523;-24
2022/07/24 23:05:25;;;;;;;6.72;5.93;;;;;;;23.05;58.69;96530.09;10419427;28;20114;-23
2022/07/24 23:10:27;;;;;;;4.00;3.63;;;;;;;23.05;58.95;96533.50;10416867;28;20045;-25
2022/07/24 23:15:28;;;;;;;7.93;5.73;;;;;;;22.95;59.65;96534.56;10419524;28;20419;-24
2022/07/24 23:20:28;;;;;;;6.03;5.45;;;;;;;22.87;59.91;96526.22;10418072;28;20034;-24